Time;durP1;ratioP1;P1;durP2;ratioP2;P2;SDS_P1;SDS_P2;PMS_P1;PMS_P2;Temp;Humidity;BMP_temperature;BMP_pressure;BME280_temperature;BME280_humidity;BME280_pressure;Samples;Min_cycle;Max_cycle;Signal;HPM_P1;HPM_P2
2022/08/19 00:01:30;;;;;;;26.13;20.00;;;;;;;18.60;100.00;101204.34;5033205;28;20467;-44
2022/08/19 00:03:58;;;;;;;32.47;19.77;;;;;;;18.57;100.00;101212.09;5033070;28;20937;-44
2022/08/19 00:06:27;;;;;;;27.60;20.23;;;;;;;18.59;100.00;101210.78;5033674;28;20985;-44
2022/08/19 00:08:55;;;;;;;32.20;19.07;;;;;;;18.61;100.00;101207.84;5033696;28;20420;-42
2022/08/19 00:11:25;;;;;;;26.20;21.73;;;;;;;18.61;100.00;101211.38;5032761;28;20454;-43
2022/08/19 00:13:52;;;;;;;24.13;20.97;;;;;;;18.64;100.00;101210.06;5032908;28;20870;-42
2022/08/19 00:16:23;;;;;;;26.97;21.73;;;;;;;18.67;100.00;101206.88;5033223;28;21151;-42
2022/08/19 00:18:53;;;;;;;27.13;21.30;;;;;;;18.68;100.00;101208.53;5033127;28;20542;-43
2022/08/19 00:21:21;;;;;;;35.37;21.40;;;;;;;18.65;100.00;101212.53;5032618;28;20455;-43
2022/08/19 00:23:48;;;;;;;26.63;19.40;;;;;;;18.63;100.00;101211.97;5033280;28;20427;-44
2022/08/19 00:26:17;;;;;;;31.33;20.53;;;;;;;18.66;100.00;101200.69;5033250;28;20439;-44
2022/08/19 00:28:46;;;;;;;27.23;19.87;;;;;;;18.69;100.00;101199.38;5032946;28;20427;-43
2022/08/19 00:31:16;;;;;;;27.10;20.17;;;;;;;18.72;100.00;101204.31;5032890;28;20435;-42
2022/08/19 00:33:43;;;;;;;24.30;21.70;;;;;;;18.77;100.00;101188.19;5032738;28;20432;-46
2022/08/19 00:36:12;;;;;;;26.60;20.70;;;;;;;18.83;100.00;101189.13;5033100;28;20428;-44
2022/08/19 00:38:43;;;;;;;21.53;19.13;;;;;;;18.90;100.00;101195.22;5033102;28;20475;-43
2022/08/19 00:41:14;;;;;;;29.77;19.37;;;;;;;18.94;100.00;101189.06;5032760;28;20435;-44
2022/08/19 00:43:42;;;;;;;29.80;19.30;;;;;;;19.00;100.00;101190.81;5032754;28;20439;-43
2022/08/19 00:46:10;;;;;;;22.37;18.90;;;;;;;19.00;100.00;101177.28;5032881;28;20432;-44
2022/08/19 00:48:38;;;;;;;22.33;19.70;;;;;;;18.93;100.00;101186.63;5032942;28;20442;-42
2022/08/19 00:51:06;;;;;;;24.43;20.30;;;;;;;18.97;100.00;101180.47;5032534;28;20798;-44
2022/08/19 00:53:34;;;;;;;23.87;19.67;;;;;;;18.98;100.00;101173.19;5032805;28;20808;-45
2022/08/19 00:56:05;;;;;;;26.37;20.70;;;;;;;18.95;100.00;101174.50;5033170;28;20432;-43
2022/08/19 00:58:34;;;;;;;24.63;21.13;;;;;;;18.92;100.00;101176.88;5032964;28;20481;-42
2022/08/19 01:01:04;;;;;;;23.33;18.73;;;;;;;18.90;100.00;101187.09;5032351;28;20428;-43
2022/08/19 01:03:33;;;;;;;26.80;20.67;;;;;;;18.87;100.00;101183.00;5032546;28;20438;-43
2022/08/19 01:06:21;;;;;;;28.20;20.53;;;;;;;18.87;100.00;101190.28;5032935;28;20462;-44
2022/08/19 01:08:48;;;;;;;36.17;21.53;;;;;;;18.90;100.00;101179.00;5032985;28;20432;-43
2022/08/19 01:11:17;;;;;;;23.80;19.50;;;;;;;18.93;100.00;101184.75;5035302;28;20435;-45
2022/08/19 01:13:46;;;;;;;33.77;20.77;;;;;;;18.93;100.00;101179.34;5036954;28;20424;-46
2022/08/19 01:16:19;;;;;;;27.60;21.67;;;;;;;18.84;100.00;101180.78;5036244;28;20443;-44
2022/08/19 01:18:49;;;;;;;26.37;21.23;;;;;;;18.83;100.00;101181.00;5036964;28;20479;-44
2022/08/19 01:21:21;;;;;;;27.40;20.50;;;;;;;18.86;100.00;101181.34;5036473;28;20801;-43
2022/08/19 01:23:51;;;;;;;27.43;21.40;;;;;;;18.74;100.00;101176.00;5036738;28;20430;-47
2022/08/19 01:26:21;;;;;;;28.23;20.20;;;;;;;18.76;100.00;101173.03;5036708;28;20459;-44
2022/08/19 01:28:53;;;;;;;27.00;20.40;;;;;;;18.72;100.00;101177.28;5036696;28;20460;-42
2022/08/19 01:31:29;;;;;;;27.93;20.67;;;;;;;18.69;100.00;101166.97;5036762;28;20520;-46
2022/08/19 01:34:00;;;;;;;27.90;20.53;;;;;;;18.64;100.00;101174.94;5036484;28;20816;-44
2022/08/19 01:36:31;;;;;;;26.23;20.87;;;;;;;18.53;100.00;101162.31;5036368;28;20448;-43
2022/08/19 01:39:00;;;;;;;26.57;20.50;;;;;;;18.51;100.00;101167.13;5036506;28;20480;-44
2022/08/19 01:41:28;;;;;;;21.97;19.57;;;;;;;18.53;100.00;101167.69;5035763;28;20460;-44
2022/08/19 01:43:56;;;;;;;29.30;20.63;;;;;;;18.53;100.00;101181.19;5036569;28;20442;-46
2022/08/19 01:46:44;;;;;;;24.93;21.40;;;;;;;18.58;100.00;101176.72;5036500;28;20477;-42
2022/08/19 01:49:12;;;;;;;25.40;18.90;;;;;;;18.63;100.00;101179.56;5036589;28;20434;-44
2022/08/19 01:51:39;;;;;;;25.20;22.40;;;;;;;18.67;100.00;101180.69;5035606;28;20467;-43
2022/08/19 01:54:10;;;;;;;24.50;21.90;;;;;;;18.68;100.00;101182.34;5035752;28;20949;-43
2022/08/19 01:56:38;;;;;;;33.83;21.87;;;;;;;18.71;100.00;101186.44;5036349;28;20459;-46
2022/08/19 01:59:11;;;;;;;26.50;20.47;;;;;;;18.70;100.00;101187.50;5036174;28;20482;-47
2022/08/19 02:01:38;;;;;;;28.17;20.97;;;;;;;18.68;100.00;101187.75;5035691;28;20471;-43
2022/08/19 02:04:06;;;;;;;26.40;18.20;;;;;;;18.73;100.00;101178.91;5035629;28;20428;-42
2022/08/19 02:06:34;;;;;;;27.50;20.43;;;;;;;18.77;100.00;101174.69;5035984;28;20459;-45
2022/08/19 02:09:02;;;;;;;28.80;19.97;;;;;;;18.82;100.00;101173.97;5035889;28;20801;-44
2022/08/19 02:11:35;;;;;;;28.07;19.80;;;;;;;18.78;100.00;101171.75;5035583;28;20840;-43
2022/08/19 02:14:05;;;;;;;26.80;21.27;;;;;;;18.77;100.00;101162.00;5035932;28;20431;-43
2022/08/19 02:16:33;;;;;;;29.00;21.40;;;;;;;18.70;100.00;101157.78;5035625;28;20981;-43
2022/08/19 02:19:01;;;;;;;28.90;21.73;;;;;;;18.70;100.00;101158.59;5035380;28;20856;-44
2022/08/19 02:21:30;;;;;;;28.80;20.90;;;;;;;18.70;100.00;101152.38;5034651;28;20466;-43
2022/08/19 02:23:58;;;;;;;26.93;21.73;;;;;;;18.72;100.00;101166.50;5035741;28;20432;-46
2022/08/19 02:26:27;;;;;;;27.47;21.23;;;;;;;18.73;100.00;101154.59;5035844;28;20829;-42
2022/08/19 02:28:56;;;;;;;32.00;22.53;;;;;;;18.72;100.00;101155.69;5035543;28;20428;-47
2022/08/19 02:31:27;;;;;;;29.73;23.30;;;;;;;18.64;100.00;101139.81;5034807;28;20443;-45
2022/08/19 02:33:56;;;;;;;39.40;22.07;;;;;;;18.60;100.00;101141.38;5035200;28;20431;-44
2022/08/19 02:36:25;;;;;;;27.13;22.40;;;;;;;18.49;100.00;101139.50;5035011;28;20794;-43
2022/08/19 02:38:51;;;;;;;32.07;22.20;;;;;;;18.47;100.00;101141.63;5035137;28;20482;-45
2022/08/19 02:41:25;;;;;;;38.23;24.77;;;;;;;18.36;100.00;101135.19;5034923;28;20963;-45
2022/08/19 02:43:53;;;;;;;40.57;24.30;;;;;;;18.28;100.00;101137.44;5035540;28;20438;-42
2022/08/19 02:46:44;;;;;;;37.83;22.77;;;;;;;18.24;100.00;101153.28;5035180;28;20459;-45
2022/08/19 02:49:12;;;;;;;41.17;24.23;;;;;;;18.14;100.00;101148.47;5035580;28;20794;-43
2022/08/19 02:51:41;;;;;;;48.40;24.23;;;;;;;18.14;100.00;101148.47;5034944;28;20482;-42
2022/08/19 02:54:10;;;;;;;48.47;26.30;;;;;;;18.19;100.00;101147.75;5034686;28;20432;-42
2022/08/19 02:56:39;;;;;;;37.70;24.70;;;;;;;18.18;100.00;101144.25;5034927;28;20456;-43
2022/08/19 02:59:09;;;;;;;38.13;27.47;;;;;;;18.11;100.00;101148.94;5035218;28;20468;-44
2022/08/19 03:01:40;;;;;;;39.43;24.20;;;;;;;18.04;100.00;101142.84;5034795;28;20502;-44
2022/08/19 03:04:12;;;;;;;49.13;25.23;;;;;;;18.07;100.00;101138.88;5034885;28;20431;-43
2022/08/19 03:06:41;;;;;;;43.50;25.67;;;;;;;17.98;100.00;101143.00;5034844;28;20456;-46
2022/08/19 03:09:10;;;;;;;53.13;26.97;;;;;;;18.00;100.00;101147.09;5034979;28;20435;-42
2022/08/19 03:11:38;;;;;;;45.77;26.00;;;;;;;17.99;100.00;101145.44;5034499;28;20782;-45
2022/08/19 03:14:07;;;;;;;49.03;26.37;;;;;;;18.00;100.00;101133.59;5034924;28;20432;-42
2022/08/19 03:16:42;;;;;;;42.87;25.80;;;;;;;18.04;100.00;101139.34;5034396;28;21000;-45
2022/08/19 03:19:11;;;;;;;31.23;23.80;;;;;;;18.02;100.00;101134.19;5034429;28;20471;-43
2022/08/19 03:21:39;;;;;;;34.20;24.40;;;;;;;18.05;100.00;101141.81;5034721;28;20466;-44
2022/08/19 03:24:09;;;;;;;40.30;25.27;;;;;;;18.04;100.00;101136.66;5034643;28;20428;-43
2022/08/19 03:26:40;;;;;;;55.20;26.57;;;;;;;18.03;100.00;101137.69;5035106;28;20791;-46
2022/08/19 03:29:10;;;;;;;43.23;26.20;;;;;;;17.96;100.00;101140.50;5034532;28;20428;-43
2022/08/19 03:31:42;;;;;;;49.40;28.03;;;;;;;17.96;100.00;101134.28;5033762;28;21039;-46
2022/08/19 03:34:25;;;;;;;42.00;24.83;;;;;;;17.94;100.00;101136.41;5033430;28;20412;-43
2022/08/19 03:36:55;;;;;;;46.43;26.10;;;;;;;17.95;100.00;101135.38;5035331;28;20465;-42
2022/08/19 03:39:23;;;;;;;43.73;26.97;;;;;;;17.93;100.00;101135.59;5034648;28;20471;-43
2022/08/19 03:41:53;;;;;;;35.97;24.27;;;;;;;17.93;100.00;101145.56;5033943;28;20464;-46
2022/08/19 03:44:42;;;;;;;38.67;24.03;;;;;;;17.91;100.00;101137.72;5035009;28;20432;-45
2022/08/19 03:47:14;;;;;;;45.90;26.83;;;;;;;17.88;100.00;101129.25;5034301;28;20455;-43
2022/08/19 03:49:44;;;;;;;45.07;26.37;;;;;;;17.89;100.00;101122.81;5033734;28;20435;-45
2022/08/19 03:52:11;;;;;;;40.87;27.23;;;;;;;17.87;100.00;101123.03;5033132;28;20460;-42
2022/08/19 03:54:39;;;;;;;46.60;27.70;;;;;;;17.93;100.00;101132.88;5033565;28;20436;-42
2022/08/19 03:57:08;;;;;;;49.13;29.00;;;;;;;17.93;100.00;101143.69;5033597;28;20452;-43
2022/08/19 03:59:37;;;;;;;37.80;25.43;;;;;;;17.92;100.00;101131.22;5033772;28;20490;-44
2022/08/19 04:02:09;;;;;;;45.50;25.80;;;;;;;17.91;100.00;101142.28;5033168;28;20523;-43
2022/08/19 04:04:38;;;;;;;36.00;25.50;;;;;;;17.98;100.00;101145.69;5033857;28;20426;-47
2022/08/19 04:07:08;;;;;;;45.07;28.13;;;;;;;17.96;100.00;101143.22;5033460;28;20470;-43
2022/08/19 04:09:36;;;;;;;39.47;26.23;;;;;;;17.98;100.00;101148.38;5033135;28;20431;-43
2022/08/19 04:12:06;;;;;;;37.30;23.20;;;;;;;18.04;100.00;101153.66;5032872;28;20474;-45
2022/08/19 04:14:35;;;;;;;44.57;28.60;;;;;;;18.12;100.00;101157.88;5033198;28;20430;-43
2022/08/19 04:17:05;;;;;;;43.03;26.77;;;;;;;18.23;100.00;101165.97;5033180;28;20468;-43
2022/08/19 04:19:34;;;;;;;33.47;23.50;;;;;;;18.30;100.00;101163.16;5033509;28;20980;-42
2022/08/19 04:22:02;;;;;;;41.43;25.70;;;;;;;18.28;100.00;101172.53;5032860;28;20818;-45
2022/08/19 04:24:31;;;;;;;41.83;24.97;;;;;;;18.31;100.00;101177.47;5033784;28;20439;-44
2022/08/19 04:27:00;;;;;;;35.47;25.07;;;;;;;18.32;100.00;101184.50;5033522;28;20466;-43
2022/08/19 04:29:28;;;;;;;42.87;23.97;;;;;;;18.36;100.00;101180.28;5033529;28;20794;-42
2022/08/19 04:31:57;;;;;;;48.33;26.70;;;;;;;18.34;100.00;101188.59;5033053;28;20467;-44
2022/08/19 04:34:26;;;;;;;40.70;25.10;;;;;;;18.35;100.00;101190.25;5033105;28;20530;-43
2022/08/19 04:36:57;;;;;;;43.27;26.57;;;;;;;18.39;100.00;101196.00;5034201;28;20456;-44
2022/08/19 04:42:38;;;;;;;45.10;26.50;;;;;;;18.34;100.00;101198.59;5033706;28;20473;-44
2022/08/19 04:45:05;;;;;;;37.80;26.40;;;;;;;18.38;100.00;101210.53;5033055;28;20523;-44
2022/08/19 04:47:36;;;;;;;36.30;26.27;;;;;;;18.40;100.00;101209.25;5032344;28;20888;-47
2022/08/19 04:50:24;;;;;;;36.67;23.80;;;;;;;18.45;100.00;101211.25;5032069;28;20424;-45
2022/08/19 04:52:52;;;;;;;39.43;26.47;;;;;;;18.43;100.00;101222.28;5031175;28;20455;-43
2022/08/19 04:55:21;;;;;;;38.50;26.03;;;;;;;18.45;100.00;101224.75;5032096;28;20451;-45
2022/08/19 04:57:50;;;;;;;36.83;24.27;;;;;;;18.42;100.00;101228.75;5031788;28;20542;-44
2022/08/19 05:00:18;;;;;;;40.93;26.60;;;;;;;18.41;100.00;101224.41;5031999;28;21026;-44
2022/08/19 05:02:46;;;;;;;41.30;25.43;;;;;;;18.38;100.00;101224.06;5031348;28;20456;-47
2022/08/19 05:05:13;;;;;;;37.50;27.17;;;;;;;18.31;100.00;101220.66;5031808;28;20482;-47
2022/08/19 05:07:41;;;;;;;53.57;29.40;;;;;;;18.30;100.00;101235.22;5031420;28;20456;-46
2022/08/19 05:10:11;;;;;;;44.43;29.07;;;;;;;18.32;100.00;101238.50;5031444;28;20925;-45
2022/08/19 05:12:39;;;;;;;50.27;28.90;;;;;;;18.27;100.00;101241.09;5030842;28;20464;-46
2022/08/19 05:15:09;;;;;;;51.20;30.63;;;;;;;18.22;100.00;101242.59;5031362;28;20424;-44
2022/08/19 05:17:36;;;;;;;53.00;30.43;;;;;;;18.19;100.00;101244.94;5031137;28;21031;-42
2022/08/19 05:22:52;;;;;;;46.73;30.40;;;;;;;18.18;100.00;101249.53;5030887;28;20459;-45
2022/08/19 05:25:22;;;;;;;51.33;32.10;;;;;;;18.19;100.00;101243.06;5031498;28;20442;-44
2022/08/19 05:27:50;;;;;;;65.50;31.77;;;;;;;18.28;100.00;101248.13;5031207;28;20977;-46
2022/08/19 05:30:19;;;;;;;52.00;28.10;;;;;;;18.27;100.00;101250.00;5031228;28;20913;-44
2022/08/19 05:33:09;;;;;;;70.90;31.60;;;;;;;18.35;100.00;101246.13;5030875;28;20460;-47
2022/08/19 05:35:37;;;;;;;54.93;31.63;;;;;;;18.37;100.00;101252.13;5031526;28;20454;-45
2022/08/19 05:38:04;;;;;;;50.90;29.93;;;;;;;18.34;100.00;101249.91;5031329;28;20477;-45
2022/08/19 05:40:34;;;;;;;54.17;31.13;;;;;;;18.32;100.00;101255.50;5031057;28;21000;-47
2022/08/19 05:43:01;;;;;;;46.70;32.23;;;;;;;18.28;100.00;101246.22;5030413;28;20459;-47
2022/08/19 05:45:30;;;;;;;47.53;29.87;;;;;;;18.31;100.00;101253.88;5031539;28;20438;-43
2022/08/19 05:47:59;;;;;;;51.70;29.80;;;;;;;18.34;100.00;101252.59;5031203;28;20455;-47
2022/08/19 05:50:26;;;;;;;49.97;29.43;;;;;;;18.32;100.00;101250.13;5031280;28;20428;-46
2022/08/19 05:52:54;;;;;;;48.47;28.80;;;;;;;18.28;100.00;101238.13;5030466;28;20462;-46
2022/08/19 05:55:22;;;;;;;44.47;28.87;;;;;;;18.31;100.00;101248.47;5031319;28;20439;-45
2022/08/19 05:57:49;;;;;;;43.57;25.63;;;;;;;18.40;100.00;101254.34;5032824;28;20823;-48
2022/08/19 06:00:17;;;;;;;43.03;26.57;;;;;;;18.43;100.00;101248.50;5034782;28;20476;-46
2022/08/19 06:02:54;;;;;;;43.73;28.30;;;;;;;18.49;100.00;101242.16;5033896;28;20474;-44
2022/08/19 06:05:22;;;;;;;47.77;29.70;;;;;;;18.57;100.00;101249.91;5034543;28;20452;-44
2022/08/19 06:07:49;;;;;;;50.17;28.27;;;;;;;18.62;100.00;101244.59;5034591;28;20455;-46
2022/08/19 06:10:17;;;;;;;50.03;29.47;;;;;;;18.64;100.00;101245.19;5034311;28;20434;-45
2022/08/19 06:12:45;;;;;;;36.70;27.40;;;;;;;18.65;100.00;101244.97;5034078;28;20463;-45
2022/08/19 06:15:14;;;;;;;45.13;28.57;;;;;;;18.67;100.00;101240.13;5034613;28;20439;-47
2022/08/19 06:17:44;;;;;;;39.03;26.33;;;;;;;18.71;100.00;101243.19;5034234;28;20470;-46
2022/08/19 06:20:16;;;;;;;43.70;27.70;;;;;;;18.75;100.00;101238.97;5034314;28;20514;-46
2022/08/19 06:22:48;;;;;;;38.10;27.40;;;;;;;18.76;100.00;101238.69;5033515;28;21009;-48
2022/08/19 06:25:17;;;;;;;38.33;25.97;;;;;;;18.83;100.00;101230.47;5034477;28;20558;-46
2022/08/19 06:27:45;;;;;;;40.83;26.73;;;;;;;18.86;100.00;101238.09;5033981;28;20941;-47
2022/08/19 06:30:33;;;;;;;36.97;24.60;;;;;;;18.85;100.00;101233.75;5034378;28;20432;-46
2022/08/19 06:33:00;;;;;;;38.57;24.90;;;;;;;18.86;100.00;101235.41;5033596;28;20460;-47
2022/08/19 06:35:29;;;;;;;45.50;26.50;;;;;;;18.86;100.00;101231.88;5033959;28;20452;-45
2022/08/19 06:37:57;;;;;;;34.93;25.70;;;;;;;18.82;100.00;101241.53;5034046;28;20485;-47
2022/08/19 06:40:25;;;;;;;34.03;25.47;;;;;;;18.72;100.00;101242.97;5034237;28;20479;-45
2022/08/19 06:42:53;;;;;;;33.03;23.63;;;;;;;18.75;100.00;101247.06;5033148;28;20468;-45
2022/08/19 06:45:22;;;;;;;34.87;24.50;;;;;;;18.77;100.00;101245.75;5033828;28;20439;-47
2022/08/19 06:47:55;;;;;;;36.20;24.50;;;;;;;18.79;100.00;101248.22;5033855;28;20455;-45
2022/08/19 06:50:23;;;;;;;34.07;23.90;;;;;;;18.83;100.00;101249.38;5033983;28;20428;-45
2022/08/19 06:52:53;;;;;;;35.23;24.93;;;;;;;18.81;100.00;101237.19;5033050;28;20548;-49
2022/08/19 06:55:22;;;;;;;27.33;23.97;;;;;;;18.88;100.00;101240.56;5033680;28;20523;-47
2022/08/19 06:57:52;;;;;;;31.33;24.10;;;;;;;18.96;100.00;101243.72;5033384;28;20466;-47
2022/08/19 07:00:21;;;;;;;32.57;25.53;;;;;;;18.96;100.00;101254.53;5033323;28;20902;-45
2022/08/19 07:02:48;;;;;;;42.23;27.50;;;;;;;18.99;100.00;101254.06;5032976;28;20462;-47
2022/08/19 07:05:23;;;;;;;33.43;25.37;;;;;;;19.07;100.00;101250.97;5033852;28;20419;-45
2022/08/19 07:07:52;;;;;;;37.03;25.83;;;;;;;19.13;100.00;101258.13;5033105;28;20456;-44
2022/08/19 07:10:24;;;;;;;31.07;25.80;;;;;;;19.11;100.00;101244.03;5033464;28;20428;-47
2022/08/19 07:12:53;;;;;;;32.63;25.77;;;;;;;19.06;100.00;101252.03;5032724;28;20509;-45
2022/08/19 07:15:21;;;;;;;34.73;25.67;;;;;;;19.01;100.00;101240.28;5033339;28;20539;-45
2022/08/19 07:17:49;;;;;;;31.20;25.63;;;;;;;19.05;100.00;101249.56;5033112;28;20471;-46
2022/08/19 07:20:19;;;;;;;28.43;24.70;;;;;;;19.06;100.00;101256.59;5033205;28;20438;-49
2022/08/19 07:22:47;;;;;;;37.87;25.73;;;;;;;19.01;100.00;101256.50;5032344;28;20471;-49
2022/08/19 07:25:17;;;;;;;31.27;25.03;;;;;;;18.95;100.00;101263.69;5032953;28;20439;-46
2022/08/19 07:27:45;;;;;;;29.70;25.50;;;;;;;18.96;100.00;101264.53;5032726;28;20969;-46
2022/08/19 07:30:22;;;;;;;30.37;26.87;;;;;;;18.99;100.00;101266.75;5033029;28;20541;-48
2022/08/19 07:32:52;;;;;;;29.93;24.57;;;;;;;19.09;100.00;101273.16;5032166;28;21031;-46
2022/08/19 07:35:20;;;;;;;32.33;24.83;;;;;;;19.07;100.00;101277.19;5032984;28;20519;-46
2022/08/19 07:37:48;;;;;;;28.47;24.60;;;;;;;19.18;100.00;101274.44;5032616;28;20462;-46
2022/08/19 07:40:17;;;;;;;29.10;25.23;;;;;;;19.25;100.00;101282.41;5032670;28;21097;-46
2022/08/19 07:42:44;;;;;;;35.80;25.73;;;;;;;19.30;100.00;101277.09;5031846;28;21008;-48
2022/08/19 07:45:12;;;;;;;36.50;25.57;;;;;;;19.30;100.00;101283.31;5032710;28;20527;-43
2022/08/19 07:47:40;;;;;;;27.03;23.97;;;;;;;19.29;100.00;101270.06;5032529;28;20481;-47
2022/08/19 07:50:19;;;;;;;29.37;24.83;;;;;;;19.29;100.00;101272.75;5032449;28;20538;-46
2022/08/19 07:52:49;;;;;;;26.20;23.33;;;;;;;19.34;100.00;101276.38;5031750;28;20464;-50
2022/08/19 07:55:26;;;;;;;28.40;24.50;;;;;;;19.35;100.00;101274.50;5032285;28;20956;-46
2022/08/19 07:58:07;;;;;;;30.50;24.93;;;;;;;19.45;100.00;101279.28;5032406;28;20977;-49
2022/08/19 08:00:35;;;;;;;28.83;24.70;;;;;;;19.51;100.00;101278.31;5032186;28;20432;-46
2022/08/19 08:03:03;;;;;;;26.90;23.20;;;;;;;19.57;100.00;101288.19;5031500;28;20498;-49
2022/08/19 08:11:02;;;;;;;27.07;24.27;;;;;;;19.56;100.00;101298.19;5031620;28;20439;-47
2022/08/19 08:13:35;;;;;;;30.93;25.60;;;;;;;19.52;100.00;101304.31;5032037;28;20995;-49
2022/08/19 08:16:03;;;;;;;29.37;26.37;;;;;;;19.48;100.00;101306.69;5032146;28;20852;-45
2022/08/19 08:18:31;;;;;;;29.30;26.33;;;;;;;19.43;100.00;101314.72;5032215;28;20518;-45
2022/08/19 08:20:59;;;;;;;28.43;25.33;;;;;;;19.51;100.00;101299.97;5031443;28;20821;-49
2022/08/19 08:23:26;;;;;;;32.00;26.10;;;;;;;19.50;100.00;101304.59;5031516;28;20950;-47
2022/08/19 08:25:58;;;;;;;29.03;25.93;;;;;;;19.47;100.00;101299.66;5032406;28;20525;-50
2022/08/19 08:28:29;;;;;;;35.50;27.50;;;;;;;19.45;100.00;101306.34;5032107;28;20431;-46
2022/08/19 08:30:58;;;;;;;29.83;26.60;;;;;;;19.43;100.00;101314.72;5031915;28;20432;-47
2022/08/19 08:33:30;;;;;;;31.40;26.93;;;;;;;19.30;100.00;101304.97;5031377;28;20443;-47
2022/08/19 08:36:02;;;;;;;30.07;26.83;;;;;;;19.39;100.00;101312.69;5031621;28;20803;-47
2022/08/19 08:38:31;;;;;;;36.23;28.60;;;;;;;19.34;100.00;101308.00;5031851;28;20838;-47
2022/08/19 08:41:13;;;;;;;32.60;27.57;;;;;;;19.35;100.00;101315.06;5031212;28;20460;-43
2022/08/19 08:43:47;;;;;;;37.00;29.27;;;;;;;19.33;100.00;101311.75;5031498;28;20416;-45
2022/08/19 08:46:18;;;;;;;32.63;28.60;;;;;;;19.39;100.00;101318.94;5031631;28;20428;-49
2022/08/19 08:49:07;;;;;;;36.27;29.63;;;;;;;19.34;100.00;101316.13;5031752;28;20770;-46
2022/08/19 08:51:41;;;;;;;32.77;28.60;;;;;;;19.38;100.00;101309.19;5031209;28;20459;-46
2022/08/19 08:54:18;;;;;;;39.37;29.70;;;;;;;19.34;100.00;101325.06;5031410;28;20753;-49
2022/08/19 08:56:48;;;;;;;35.40;26.93;;;;;;;19.37;100.00;101314.81;5031621;28;20825;-45
2022/08/19 08:59:22;;;;;;;40.33;29.50;;;;;;;19.49;100.00;101315.63;5031678;28;20430;-44
2022/08/19 09:01:50;;;;;;;34.23;27.37;;;;;;;19.60;100.00;101312.88;5031208;28;20480;-48
2022/08/19 09:04:18;;;;;;;33.53;27.60;;;;;;;19.64;100.00;101315.91;5031359;28;20436;-45
2022/08/19 09:06:55;;;;;;;39.43;29.77;;;;;;;19.79;100.00;101322.44;5031423;28;20475;-46
2022/08/19 09:09:32;;;;;;;28.53;25.37;;;;;;;19.92;100.00;101312.38;5031510;28;20431;-45
2022/08/19 09:12:09;;;;;;;34.07;26.53;;;;;;;20.04;100.00;101313.13;5031051;28;20459;-44
2022/08/19 09:14:47;;;;;;;30.60;26.20;;;;;;;20.17;100.00;101310.91;5031331;28;20926;-46
2022/08/19 09:17:20;;;;;;;31.13;24.40;;;;;;;20.23;100.00;101312.63;5031328;28;20475;-47
2022/08/19 09:19:52;;;;;;;29.00;25.80;;;;;;;20.29;100.00;101317.09;5031322;28;20438;-47
2022/08/19 09:22:21;;;;;;;28.23;24.20;;;;;;;20.23;100.00;101318.03;5030710;28;20479;-46
2022/08/19 09:24:54;;;;;;;24.87;22.33;;;;;;;20.39;100.00;101313.72;5031263;28;20454;-43
2022/08/19 09:27:24;;;;;;;26.57;23.80;;;;;;;20.51;100.00;101319.06;5031490;28;20455;-45
2022/08/19 09:30:15;;;;;;;31.33;24.20;;;;;;;20.61;100.00;101314.59;5031408;28;20435;-45
2022/08/19 09:32:44;;;;;;;29.77;24.00;;;;;;;20.79;100.00;101318.91;5034214;28;20459;-43
2022/08/19 09:35:13;;;;;;;27.83;23.27;;;;;;;20.76;100.00;101319.41;5035167;28;20440;-45
2022/08/19 09:37:42;;;;;;;27.93;24.40;;;;;;;20.77;100.00;101318.34;5035004;28;20482;-45
2022/08/19 09:40:11;;;;;;;25.93;21.70;;;;;;;20.73;100.00;101314.50;5034933;28;20519;-46
2022/08/19 09:42:39;;;;;;;24.23;21.53;;;;;;;20.74;100.00;101318.84;5034154;28;20479;-49
2022/08/19 09:45:21;;;;;;;30.83;23.67;;;;;;;20.65;100.00;101328.47;5035078;28;20644;-44
2022/08/19 09:47:50;;;;;;;26.53;23.90;;;;;;;20.58;100.00;101323.22;5034992;28;20498;-44
2022/08/19 09:50:18;;;;;;;27.77;23.00;;;;;;;20.59;100.00;101326.75;5034727;28;20467;-44
2022/08/19 09:52:47;;;;;;;27.53;24.37;;;;;;;20.49;100.00;101329.34;5034318;28;20854;-43
2022/08/19 09:55:25;;;;;;;32.80;24.90;;;;;;;20.45;100.00;101322.75;5034700;28;20466;-47
2022/08/19 09:58:01;;;;;;;28.97;25.20;;;;;;;20.46;100.00;101333.31;5034637;28;20960;-44
2022/08/19 10:00:31;;;;;;;31.60;23.63;;;;;;;20.56;100.00;101335.38;5034803;28;20454;-45
2022/08/19 10:02:59;;;;;;;27.57;24.27;;;;;;;20.65;100.00;101331.19;5033879;28;20479;-49
2022/08/19 10:08:16;;;;;;;28.73;24.93;;;;;;;20.72;100.00;101332.66;5034549;28;20566;-48
2022/08/19 10:10:44;;;;;;;26.07;23.37;;;;;;;20.73;100.00;101319.91;5034575;28;20438;-47
2022/08/19 10:13:14;;;;;;;26.13;23.33;;;;;;;20.87;100.00;101326.63;5033818;28;20455;-47
2022/08/19 10:15:44;;;;;;;30.07;24.50;;;;;;;20.88;100.00;101326.38;5034320;28;20436;-49
2022/08/19 10:18:17;;;;;;;26.10;23.50;;;;;;;20.94;100.00;101321.84;5034066;28;20468;-42
2022/08/19 10:20:46;;;;;;;31.77;24.77;;;;;;;21.05;100.00;101329.06;5034786;28;20431;-47
2022/08/19 10:23:19;;;;;;;29.70;26.57;;;;;;;20.92;100.00;101319.38;5033777;28;20506;-46
2022/08/19 10:25:48;;;;;;;30.10;24.20;;;;;;;21.09;100.00;101326.66;5034411;28;20432;-48
2022/08/19 10:28:16;;;;;;;26.67;23.87;;;;;;;21.22;100.00;101315.44;5034188;28;20440;-48
2022/08/19 10:30:48;;;;;;;27.20;23.70;;;;;;;21.34;100.00;101311.53;5034120;28;21197;-44
2022/08/19 10:33:15;;;;;;;32.47;26.67;;;;;;;21.26;100.00;101325.56;5033546;28;20459;-48
2022/08/19 10:36:07;;;;;;;27.23;24.30;;;;;;;21.47;100.00;101319.25;5034200;28;20782;-47
2022/08/19 10:38:35;;;;;;;29.40;24.10;;;;;;;21.51;100.00;101317.69;5033946;28;20434;-46
2022/08/19 10:41:11;;;;;;;37.10;25.80;;;;;;;21.52;100.00;101308.50;5033438;28;20502;-47
2022/08/19 10:43:39;;;;;;;28.70;24.93;;;;;;;21.46;100.00;101314.94;5033109;28;20845;-43
2022/08/19 10:46:11;;;;;;;29.10;25.17;;;;;;;21.56;100.00;101307.97;5057421;23;20490;-40
2022/08/19 10:48:44;;;;;;;29.57;24.60;;;;;;;21.62;100.00;101317.81;5033765;28;20415;-40
2022/08/19 10:53:57;;;;;;;25.40;22.77;;;;;;;21.80;98.92;101306.59;5033673;28;20801;-40
2022/08/19 10:59:11;;;;;;;26.93;23.87;;;;;;;22.10;97.73;101301.47;5033663;28;20427;-42
2022/08/19 11:01:42;;;;;;;27.43;24.70;;;;;;;22.17;95.90;101304.78;5033149;28;20460;-43
2022/08/19 11:04:13;;;;;;;28.13;24.40;;;;;;;22.28;94.72;101305.69;5033596;28;20455;-41
2022/08/19 11:06:41;;;;;;;26.33;23.70;;;;;;;22.42;93.47;101315.84;5033545;28;20455;-40
2022/08/19 11:09:10;;;;;;;25.03;22.53;;;;;;;22.62;95.26;101315.16;5033506;28;20461;-41
2022/08/19 11:11:40;;;;;;;24.00;21.50;;;;;;;22.94;94.97;101307.75;5033053;28;20467;-40
2022/08/19 11:14:09;;;;;;;23.83;21.33;;;;;;;23.12;90.05;101298.31;5033182;28;20434;-41
2022/08/19 11:16:38;;;;;;;26.90;24.13;;;;;;;23.37;87.50;101303.84;5033096;28;20467;-40
2022/08/19 11:19:09;;;;;;;25.77;22.83;;;;;;;23.85;87.97;101297.19;5033330;28;20431;-40
2022/08/19 11:21:39;;;;;;;24.87;22.27;;;;;;;24.11;83.09;101292.56;5032754;28;20873;-40
2022/08/19 11:24:09;;;;;;;23.50;21.30;;;;;;;24.09;81.60;101290.09;5032863;28;20476;-40
2022/08/19 11:26:39;;;;;;;26.07;22.43;;;;;;;23.79;83.06;101294.72;5033078;28;20837;-43
2022/08/19 11:29:11;;;;;;;23.43;21.40;;;;;;;23.90;84.90;101286.28;5032907;28;20801;-40
2022/08/19 11:31:41;;;;;;;26.53;23.53;;;;;;;23.66;82.29;101296.03;5032579;28;20459;-40
2022/08/19 11:34:13;;;;;;;26.43;23.93;;;;;;;23.44;84.48;101287.31;5032921;28;20424;-40
2022/08/19 11:36:44;;;;;;;21.43;19.53;;;;;;;23.61;86.79;101288.69;5032986;28;20497;-42